createdAt,value
2023-11-21T00:03:15.724Z,7.70
2023-11-21T00:08:23.052Z,7.70
2023-11-21T00:13:30.202Z,7.70
2023-11-21T00:18:37.427Z,7.70
2023-11-21T00:23:44.302Z,7.70
2023-11-21T00:28:52.147Z,7.70
2023-11-21T00:33:59.143Z,7.80
2023-11-21T00:39:07.403Z,7.80
2023-11-21T00:44:14.855Z,7.70
2023-11-21T00:49:22.361Z,7.70
2023-11-21T00:54:32.050Z,7.70
2023-11-21T00:59:39.591Z,7.70
2023-11-21T01:04:46.615Z,7.70
2023-11-21T01:09:53.484Z,7.70
2023-11-21T01:15:02.117Z,7.70
2023-11-21T01:20:12.674Z,7.70
2023-11-21T01:25:19.949Z,7.60
2023-11-21T01:30:27.078Z,7.60
2023-11-21T01:35:34.358Z,7.60
2023-11-21T01:40:41.404Z,7.50
2023-11-21T01:45:48.426Z,7.60
2023-11-21T01:50:55.384Z,7.60
2023-11-21T01:56:02.491Z,7.70
2023-11-21T02:01:11.415Z,7.70
2023-11-21T02:06:18.554Z,7.70
2023-11-21T02:11:25.844Z,7.70
2023-11-21T02:16:34.689Z,7.70
2023-11-21T02:21:42.048Z,7.70
2023-11-21T02:26:49.388Z,7.70
2023-11-21T02:31:57.945Z,7.70
2023-11-21T02:37:05.457Z,7.60
2023-11-21T02:42:12.526Z,7.50
2023-11-21T02:47:19.659Z,7.40
2023-11-21T02:52:26.775Z,7.40
2023-11-21T02:57:33.857Z,7.30
2023-11-21T03:02:41.538Z,7.30
2023-11-21T03:07:49.002Z,7.40
2023-11-21T03:12:56.170Z,7.40
2023-11-21T03:18:03.146Z,7.40
2023-11-21T03:23:10.236Z,7.20
2023-11-21T03:28:17.120Z,7.20
2023-11-21T03:33:24.277Z,7.00
2023-11-21T03:38:31.163Z,6.90
2023-11-21T03:43:38.598Z,6.90
2023-11-21T03:48:45.603Z,7.00
2023-11-21T03:53:52.592Z,6.90
2023-11-21T03:58:59.798Z,6.80
2023-11-21T04:04:07.104Z,6.70
2023-11-21T04:09:14.194Z,6.60
2023-11-21T04:14:21.853Z,6.70
2023-11-21T04:19:28.924Z,6.60
2023-11-21T04:24:35.675Z,6.60
2023-11-21T04:29:42.944Z,6.70
2023-11-21T04:34:49.984Z,6.70
2023-11-21T04:39:57.038Z,6.80
2023-11-21T04:45:05.530Z,6.70
2023-11-21T04:50:13.016Z,6.60
2023-11-21T04:55:21.336Z,6.50
2023-11-21T05:00:28.451Z,6.40
2023-11-21T05:05:35.768Z,6.30
2023-11-21T05:10:42.955Z,6.30
2023-11-21T05:15:49.856Z,6.30
2023-11-21T05:20:57.049Z,6.30
2023-11-21T05:26:04.155Z,6.40
2023-11-21T05:31:16.679Z,6.40
2023-11-21T05:36:21.363Z,6.40
2023-11-21T05:41:28.198Z,6.30
2023-11-21T05:46:35.995Z,6.30
2023-11-21T05:51:43.229Z,6.30
2023-11-21T05:56:51.284Z,6.20
2023-11-21T06:01:58.171Z,6.40
2023-11-21T06:07:05.917Z,6.40
2023-11-21T06:12:13.059Z,6.50
2023-11-21T06:17:22.162Z,6.50
2023-11-21T06:22:29.581Z,6.50
2023-11-21T06:27:38.321Z,6.50
2023-11-21T06:32:49.788Z,6.30
2023-11-21T06:37:57.061Z,6.40
2023-11-21T06:43:04.103Z,6.50
2023-11-21T06:48:11.213Z,6.40
2023-11-21T06:53:18.516Z,6.40
2023-11-21T06:58:25.987Z,6.50
2023-11-21T07:03:33.451Z,6.60
2023-11-21T07:08:40.473Z,6.50
2023-11-21T07:13:47.445Z,6.50
2023-11-21T07:18:56.299Z,6.60
2023-11-21T07:24:04.813Z,6.70
2023-11-21T07:29:20.524Z,6.70
2023-11-21T07:34:27.831Z,6.70
2023-11-21T07:39:35.079Z,6.70
2023-11-21T07:44:44.003Z,6.70
2023-11-21T07:49:50.965Z,6.90
2023-11-21T07:54:58.040Z,6.80
2023-11-21T08:00:07.338Z,6.90
2023-11-21T08:05:21.761Z,6.90
2023-11-21T08:10:23.467Z,7.10
2023-11-21T08:15:30.714Z,7.10
2023-11-21T08:20:39.620Z,7.10
2023-11-21T08:25:48.151Z,7.10
2023-11-21T08:30:57.016Z,7.10
2023-11-21T08:36:03.862Z,7.20
2023-11-21T08:41:12.636Z,7.30
2023-11-21T08:46:20.560Z,7.10
2023-11-21T08:51:27.990Z,7.10
2023-11-21T08:56:34.958Z,7.10
2023-11-21T09:01:42.266Z,7.20
2023-11-21T09:06:49.309Z,7.30
2023-11-21T09:11:56.509Z,7.30
2023-11-21T09:17:03.542Z,7.30
2023-11-21T09:22:10.939Z,7.30
2023-11-21T09:27:19.154Z,7.40
2023-11-21T09:32:26.346Z,7.20
2023-11-21T09:37:34.131Z,7.20
2023-11-21T09:42:45.842Z,7.30
2023-11-21T09:48:23.277Z,7.40
2023-11-21T09:53:33.149Z,7.40
2023-11-21T09:58:40.884Z,7.40
2023-11-21T10:03:48.617Z,7.20
2023-11-21T10:08:58.236Z,7.20
2023-11-21T10:14:06.773Z,7.20
2023-11-21T10:19:16.390Z,7.20
2023-11-21T10:24:23.771Z,7.20
2023-11-21T10:29:34.553Z,7.20
2023-11-21T10:34:42.860Z,7.20
2023-11-21T10:39:50.238Z,7.20
2023-11-21T10:44:58.125Z,7.10
2023-11-21T10:50:06.791Z,7.10
2023-11-21T10:55:23.889Z,7.10
2023-11-21T11:00:31.363Z,7.20
2023-11-21T11:05:39.159Z,7.10
2023-11-21T11:10:49.396Z,7.00
2023-11-21T11:16:03.904Z,6.80
2023-11-21T11:21:19.857Z,7.00
2023-11-21T11:26:51.901Z,7.00
2023-11-21T11:32:36.214Z,7.10
2023-11-21T11:37:43.039Z,6.90
2023-11-21T11:43:01.018Z,7.10
2023-11-21T11:48:09.609Z,7.30
2023-11-21T11:53:20.633Z,7.20
2023-11-21T11:58:32.318Z,7.10
2023-11-21T12:03:40.513Z,7.20
2023-11-21T12:08:48.328Z,7.10
2023-11-21T12:13:55.789Z,7.20
2023-11-21T12:19:02.778Z,7.10
2023-11-21T12:24:15.134Z,7.00
2023-11-21T12:29:22.249Z,7.10
2023-11-21T12:34:29.727Z,7.40
2023-11-21T12:39:36.680Z,7.20
2023-11-21T12:44:45.085Z,7.40
2023-11-21T12:49:51.910Z,7.40
2023-11-21T12:54:58.849Z,7.40
2023-11-21T13:00:09.005Z,7.30
2023-11-21T13:05:17.625Z,7.20
2023-11-21T13:10:30.324Z,7.50
2023-11-21T13:15:38.063Z,7.20
2023-11-21T13:20:45.449Z,7.40
2023-11-21T13:25:58.067Z,7.20
2023-11-21T13:31:02.629Z,7.20
2023-11-21T13:36:11.798Z,7.40
2023-11-21T13:41:19.379Z,7.30
2023-11-21T13:46:26.996Z,7.20
2023-11-21T13:51:35.340Z,7.20
2023-11-21T13:56:52.171Z,7.30
2023-11-21T14:02:01.500Z,7.20
2023-11-21T14:07:26.536Z,7.10
2023-11-21T14:12:36.613Z,7.30
2023-11-21T14:17:44.302Z,7.20
2023-11-21T14:22:51.123Z,7.30
2023-11-21T14:27:58.179Z,7.30
2023-11-21T14:33:05.592Z,7.20
2023-11-21T14:38:12.852Z,7.10
2023-11-21T14:43:20.509Z,7.00
2023-11-21T14:48:47.028Z,6.90
2023-11-21T14:53:58.319Z,6.80
2023-11-21T14:59:10.093Z,6.80
2023-11-21T15:04:18.546Z,6.80
2023-11-21T15:09:26.941Z,6.50
2023-11-21T15:14:35.884Z,6.30
2023-11-21T15:19:43.744Z,6.30
2023-11-21T15:24:50.943Z,6.10
2023-11-21T15:29:57.839Z,6.20
2023-11-21T15:35:06.064Z,6.00
2023-11-21T15:40:15.232Z,6.00
2023-11-21T15:45:24.449Z,6.10
2023-11-21T15:50:33.278Z,6.00
2023-11-21T15:55:41.874Z,6.20
2023-11-21T16:00:48.713Z,6.20
2023-11-21T16:05:55.466Z,6.10
2023-11-21T16:11:02.299Z,6.20
2023-11-21T16:16:09.377Z,6.20
2023-11-21T16:21:22.387Z,6.30
2023-11-21T16:26:29.062Z,6.20
2023-11-21T16:31:36.185Z,6.20
2023-11-21T16:36:46.662Z,6.10
2023-11-21T16:41:54.492Z,6.10
2023-11-21T16:47:05.071Z,6.10
2023-11-21T16:52:24.103Z,6.10
2023-11-21T16:57:32.861Z,6.00
2023-11-21T17:02:41.647Z,6.00
2023-11-21T17:07:49.692Z,6.00
2023-11-21T17:12:56.723Z,6.10
2023-11-21T17:18:04.608Z,6.10
2023-11-21T17:23:11.986Z,6.20
2023-11-21T17:28:18.846Z,6.10
2023-11-21T17:33:26.321Z,6.00
2023-11-21T17:38:33.813Z,6.10
2023-11-21T17:43:45.247Z,6.10
2023-11-21T17:48:55.925Z,6.00
2023-11-21T17:54:03.229Z,6.10
2023-11-21T17:59:10.485Z,6.00
2023-11-21T18:04:17.312Z,6.10
2023-11-21T18:09:24.415Z,6.00
2023-11-21T18:14:34.436Z,5.90
2023-11-21T18:19:41.367Z,5.90
2023-11-21T18:24:48.237Z,5.70
2023-11-21T18:29:55.488Z,5.70
2023-11-21T18:35:02.520Z,5.60
2023-11-21T18:40:11.223Z,5.50
2023-11-21T18:45:18.038Z,5.50
2023-11-21T18:50:25.361Z,5.30
2023-11-21T18:55:32.514Z,5.40
2023-11-21T19:00:39.351Z,5.30
2023-11-21T19:05:46.151Z,5.30
2023-11-21T19:10:52.949Z,5.10
2023-11-21T19:15:59.739Z,5.10
2023-11-21T19:21:06.582Z,5.10
2023-11-21T19:26:15.582Z,5.10
2023-11-21T19:31:24.459Z,5.10
2023-11-21T19:36:31.605Z,5.10
2023-11-21T19:41:41.335Z,5.10
2023-11-21T19:46:48.956Z,5.00
2023-11-21T19:51:56.254Z,5.00
2023-11-21T19:57:05.410Z,4.90
2023-11-21T20:02:12.549Z,4.80
2023-11-21T20:07:21.038Z,4.80
2023-11-21T20:12:28.306Z,4.90
2023-11-21T20:17:35.181Z,5.10
2023-11-21T20:22:42.900Z,5.10
2023-11-21T20:27:50.109Z,5.30
2023-11-21T20:32:59.649Z,5.30
2023-11-21T20:38:08.985Z,5.30
2023-11-21T20:43:16.277Z,5.40
2023-11-21T20:48:24.261Z,5.50
2023-11-21T20:53:31.275Z,5.20
2023-11-21T20:58:38.627Z,5.20
2023-11-21T21:03:47.559Z,5.40
2023-11-21T21:08:56.222Z,5.10
2023-11-21T21:14:06.284Z,5.00
2023-11-21T21:19:15.235Z,5.00
2023-11-21T21:24:22.250Z,5.20
2023-11-21T21:29:29.289Z,5.20
2023-11-21T21:34:36.516Z,5.10
2023-11-21T21:39:43.585Z,5.00
2023-11-21T21:44:51.432Z,5.10
2023-11-21T21:49:58.360Z,5.00
2023-11-21T21:55:07.336Z,4.90
2023-11-21T22:00:15.176Z,4.80
2023-11-21T22:05:22.208Z,4.60
2023-11-21T22:10:29.627Z,4.70
2023-11-21T22:15:36.424Z,4.70
2023-11-21T22:20:43.203Z,4.50
2023-11-21T22:25:50.248Z,4.50
2023-11-21T22:30:57.120Z,4.40
2023-11-21T22:36:04.160Z,4.50
2023-11-21T22:41:11.377Z,4.60
2023-11-21T22:46:18.344Z,4.60
2023-11-21T22:51:25.993Z,4.70
2023-11-21T22:56:33.764Z,4.60
2023-11-21T23:01:40.933Z,4.90
2023-11-21T23:06:50.191Z,4.90
2023-11-21T23:11:58.768Z,5.00
2023-11-21T23:17:05.795Z,4.90
2023-11-21T23:22:13.339Z,4.90
2023-11-21T23:27:20.558Z,4.80
2023-11-21T23:32:28.108Z,4.70
2023-11-21T23:37:35.128Z,4.70
2023-11-21T23:42:42.552Z,4.50
2023-11-21T23:47:49.777Z,4.40
2023-11-21T23:52:57.177Z,4.40
2023-11-21T23:58:04.377Z,4.40
